Terminal Aerodrome Forecast
Issued by NWS

Home | Current Version | Previous Version | Text Only | Print | Product List | Glossary On
Versions: 1 2 3 4 5 6 7 8 9 10 11 12 13 14 15
000
FTAK31 PAJN 271740
TAFAPG
TAF
PAPG 271740Z 2718/2818 00000KT P6SM SKC
     FM271900 06007KT P6SM SKC
     FM280500 VRB03KT P6SM SCT060 BKN120
     FM281100 00000KT P6SM BKN060 OVC100
     FM281400 00000KT P6SM VCFG FEW003 OVC060
      AMD LTD TO CLD VIS AND WIND 2806/2815=

USA.gov is the U.S. government's official web portal to all federal, state and local government web resources and services.